Latest Observation

73 Stations

15 Minute Data | America/Los_Angeles
as of 5/17/22 8:42 PM PDT
Station Date Time Temp (°F) RH (%) Dew Pt (°F) Wind Spd (mph) Wind Dir (°) Wind Gust (mph) Latest Rain (In) Daily Min Temp (°F) Daily Max Temp (°F) Daily Rain (In) Daily Max Wind (mph) Yest MinT (°F) Yest MaxT (°F) Yest Rain (In) Yest MaxGst (mph) MinBV Day (V)
Upper Lake 5/17/22 2030 66.9   6.3 47   15 45.8   1.6 7.2   1.8 WNW | 283 13.3   1.0 0.00 40.3   1.1 79.4   6.5 0.00 24.9   0.6 41.5 72.9 0.00 24.3 -
Scotts Valley 5/17/22 2030 64.1   5.6 50   15 45.4   1.5 1.9   0.4 SW | 216 4.2   5.4 0.00 33.7   1.7 82.0   7.4 0.00 15.3   1.5 35.4 74.6 0.00 16.9 -
Scotts Valley-South (Bella Vista) 5/17/22 2030 65.4   6.7 44   19 42.9   3.1 3.4   1.5 WSW | 252 7.6   2.1 0.00 39.6   2.1 81.8   7.5 0.00 18.2   3.5 41.7 74.3 0.00 21.7 -
Kelseyville 5/17/22 2030 67.6   6.1 45   14 45.6   1.7 2.7   3.7 SSW | 213 6.8   4.8 0.00 39.4   3.2 82.9   5.7 0.00 18.4   1.5 42.6 77.2 0.00 16.9 -
Kelseyville Remote 5/17/22 2030 68.0   6.0 39   14 42.3   2.7 - - - 0.00 39.3   3.2 83.0   6.3 0.00 - 42.5 76.7 0.00 - -
Kelseyville (Clark Drive) 5/17/22 2030 68.0   6.6 - - - - - 0.00 39.8   0.8 84.6   5.8 0.00 - 40.5 78.8 0.00 - -
Kelsey Bench (Oaklea) 5/17/22 2030 67.6   6.4 41   15 43.2   2.0 5.8   0.5 SW | 224 9.1   1.4 0.00 42.8   0.3 84.5   6.5 0.00 20.6   2.1 43.1 78.0 0.00 18.6 12.8   0.0
Kelseyville-South 5/17/22 2030 66.1   5.5 43   15 43.1   3.0 4.4   1.5 SW | 218 7.8   2.4 0.00 39.0   1.0 83.0   7.0 0.00 19.5   2.3 40.1 76.0 0.00 17.2 -
Bell Hill-West 5/17/22 2030 65.7   5.8 43   15 42.8   2.3 5.6   1.2 SW | 218 9.1   2.7 0.00 40.8   2.0 80.5   6.5 0.00 18.2   1.4 42.8 74.0 0.00 16.8 -
Wight Way 5/17/22 2000 68.2   6.2 41   12 43.9   1.0 4.5   1.3 W | 281 10.9   1.4 0.00 38.7   1.8 81.7   6.7 0.00 15.9   1.3 40.5 75.0 0.00 17.1 -
High Valley Ridgeline (Brassfield) 5/17/22 2030 65.0   7.2 46   22 43.6   3.6 11.4   2.0 WSW | 254 17.1   5.0 0.00 49.8   3.9 79.6   6.5 0.00 19.8   4.9 46.0 73.0 0.00 24.7 -
Ridgeline Top (Brassfield) 5/17/22 2030 64.5   7.3 - - - - - - 48.9   3.1 79.3   5.9 - - 45.8 73.3 - - -
Ridgeline Low (Brassfield) 5/17/22 2030 66.6   7.1 - - - - - - 50.5   2.7 79.8   7.1 - - 47.9 72.7 - - -
High Valley Winery 5/17/22 2030 67.6   7.5 42   20 44.0   3.4 8.6   0.6 W | 261 13.6   3.5 0.00 40.6   8.5 82.1   6.6 0.00 20.5   3.8 47.0 75.5 0.00 24.2 -
Long Valley (Shannon) 5/17/22 2030 68.7   4.5 47   9 47.7   0.7 1.0   0.4 W | 271 2.2   2.0 0.00 41.3   3.3 86.1   5.3 0.00 12.2   5.0 38.0 80.8 0.00 17.3 12.9   0.0
Robertsbridge Vineyards 5/17/22 2030 64.6   5.6 46   13 43.2   1.2 - - - - 39.8   0.2 83.7   6.4 - - 39.6 77.3 - - -
Red Hills (Beckstoffer) 5/17/22 2030 68.1   7.3 37   18 41.2   3.6 - - - - 40.7   4.5 82.9   6.6 - - 45.2 76.4 - - 12.7   0.0
Winters (Shannon) 5/17/22 2030 68.9   7.8 34   19 39.5   4.4 5.9   0.9 W | 265 11.0   2.4 0.00 39.9   10.9 81.0   6.2 0.00 16.7   4.9 50.8 74.8 0.00 21.6 12.9   0.0
Rolling Knolls (Shannon) 5/16/22 1300 73.3   6.5 35   2 44.3   7.5 2.3   2.5 NNE | 33 5.8   8.6 0.00 52.4   7.0 74.2   6.2 0.00 14.3   0.1 45.5 81.6 0.00 19.5 12.9   0.0
Secret Pond (Shannon) 5/16/22 1300 71.9   3.6 33   7 41.5   8.1 8.6   1.5 N | 0 14.8   1.0 0.00 50.4   0.1 72.8   3.6 0.00 22.8   3.5 50.4 76.6 0.00 22.7 12.9   0.0
Lower Lake 5/17/22 2030 71.2   7.9 34   19 41.5   4.6 10.6   6.0 W | 260 17.3   7.5 0.00 48.8   2.6 83.6   5.0 0.00 19.0   2.2 51.4 78.6 0.00 21.2 -
Middletown (Diamond D) 5/17/22 2030 75.6   8.9 31   18 42.5   4.1 4.7   1.1 N | 354 10.6   0.8 0.00 43.3   0.8 84.4   6.0 0.00 20.1   1.4 42.5 78.4 0.00 21.6 12.6   0.0
Middletown-West (Bella Vista) 5/17/22 2030 73.6   9.1 32   19 41.8   4.3 - - - 0.00 38.8   2.0 84.8   6.5 0.00 - 40.9 78.3 0.00 - -
Middletown-South 5/17/22 2030 66.6   1.0 52   4 48.2   2.9 1.6   0.5 SW | 218 3.9   0.7 0.00 43.7   0.1 83.7   6.1 0.00 18.0   2.7 43.8 77.6 0.00 20.7 -
Lower Bohn 5/17/22 1845 81.9   5.1 26   6 43.4   1.3 8.6   0.4 W | 262 13.5   1.1 0.00 38.0   2.9 87.1   3.9 0.00 19.2   4.0 35.1 83.2 0.00 15.6 -
Upper Bohn-North 5/17/22 2030 75.9   11.2 27   25 39.3   7.1 3.3   2.3 NW | 320 6.8   3.3 0.00 48.7   1.8 89.1   4.6 0.00 - - - - - -
Upper Bohn-South 5/17/22 2030 76.6   9.3 28   2 41.5   6.2 4.9   3.3 WNW | 301 10.1   7.2 0.00 51.8   4.8 86.8   4.0 0.00 - - - - - -
Morgan Valley 5/17/22 2030 69.5   6.9 39   20 43.7   4.6 12.5   3.4 WNW | 294 17.6   0.8 0.00 55.2   3.4 81.7   5.0 0.00 23.3   3.3 51.8 76.7 0.00 26.6 -
Mine Pit South 5/17/22 2030 71.8   6.6 35   16 42.4   4.3 3.8   4.6 NNW | 332 9.7   3.7 0.00 51.5   1.9 89.1   5.4 0.00 27.2   4.5 49.6 83.7 0.00 22.7 -
Cow Mountain 5/17/22 2030 60.9   14.2 - - 11.7   6.4 WNW | 303 27.0   3.1 0.00 54.0   12.5 67.7   9.2 0.00 35.3   0.2 41.5 58.5 0.00 35.1 -
Ukiah-SE (Ruddick) 5/17/22 2030 66.0   6.3 41   18 41.4   3.9 9.0   2.9 N | 353 12.4   4.4 0.00 40.5   7.4 79.7   6.4 0.00 22.8   0.7 46.6 73.3 0.17 22.0 -
Max     76.6 52 48.2 12.5 - 27.0 0.00 55.2 89.1 0.00 35.3 51.8 83.7 0.17 35.1 12.9
Avg     68.2 40 43.2 5.9 - 10.9 0.00 - - - - - - - - -
Min     60.9 27 39.3 1.0 - 2.2 0.00 33.7 67.7 0.00 12.2 35.4 58.5 0.00 16.8 12.6